Time;durP1;ratioP1;P1;durP2;ratioP2;P2;SDS_P1;SDS_P2;PMS_P1;PMS_P2;Temp;Humidity;BMP_temperature;BMP_pressure;BME280_temperature;BME280_humidity;BME280_pressure;Samples;Min_cycle;Max_cycle;Signal;HPM_P1;HPM_P2
2023/01/22 00:02:24;;;;;;;12.75;6.55;;;;;;;0.13;100.00;102030.94;6297271;28;20366;-91
2023/01/22 00:05:26;;;;;;;10.70;6.22;;;;;;;0.13;100.00;102023.28;6287374;28;20039;-92
2023/01/22 00:08:28;;;;;;;10.98;7.10;;;;;;;0.09;100.00;102029.28;6303193;28;20059;-92
2023/01/22 00:11:30;;;;;;;13.18;6.68;;;;;;;0.10;100.00;102030.97;6293810;28;20096;-92
2023/01/22 00:14:32;;;;;;;12.40;6.78;;;;;;;0.08;100.00;102031.84;6295007;28;20040;-92
2023/01/22 00:17:34;;;;;;;12.73;6.55;;;;;;;0.09;100.00;102029.28;6293131;28;20146;-92
2023/01/22 00:20:36;;;;;;;10.45;6.28;;;;;;;0.04;100.00;102025.09;6290923;28;20044;-91
2023/01/22 00:23:39;;;;;;;14.80;6.63;;;;;;;0.05;100.00;102027.63;6295179;28;20139;-92
2023/01/22 00:26:41;;;;;;;14.23;7.88;;;;;;;0.04;100.00;102023.38;6296358;28;20373;-92
2023/01/22 00:29:44;;;;;;;11.73;6.95;;;;;;;0.05;100.00;102030.19;6292570;28;20113;-92
2023/01/22 00:32:46;;;;;;;10.32;6.05;;;;;;;0.02;100.00;102030.19;6298406;28;20138;-92
2023/01/22 00:35:48;;;;;;;12.57;6.25;;;;;;;0.00;100.00;102024.31;6287885;28;20236;-92
2023/01/22 00:38:50;;;;;;;11.82;6.75;;;;;;;0.02;100.00;102022.56;6287833;28;20087;-92
2023/01/22 00:41:52;;;;;;;11.85;6.75;;;;;;;0.04;100.00;102020.84;6288132;28;20040;-91
2023/01/22 00:44:54;;;;;;;10.95;6.95;;;;;;;0.02;100.00;102027.66;6288907;28;20483;-91
2023/01/22 00:47:56;;;;;;;12.02;6.85;;;;;;;0.03;100.00;102023.44;6291490;28;20040;-91
2023/01/22 00:50:57;;;;;;;12.85;6.72;;;;;;;0.02;100.00;102020.00;6291563;28;20032;-91
2023/01/22 00:53:59;;;;;;;13.77;7.20;;;;;;;-0.01;100.00;102015.81;6293587;28;20048;-90
2023/01/22 00:57:02;;;;;;;14.15;6.35;;;;;;;-0.02;100.00;102019.22;6298692;28;20052;-90
2023/01/22 01:00:05;;;;;;;9.85;6.13;;;;;;;-0.04;100.00;102013.28;6302790;28;20529;-90
2023/01/22 01:06:27;;;;;;;12.75;6.00;;;;;;;-0.01;100.00;102017.50;6302190;28;20101;-89
2023/01/22 01:09:29;;;;;;;13.05;6.90;;;;;;;0.00;100.00;102003.94;6293217;28;20561;-89
2023/01/22 01:12:31;;;;;;;11.85;6.45;;;;;;;-0.01;100.00;102012.41;6303495;28;20040;-88
2023/01/22 01:15:33;;;;;;;12.75;6.43;;;;;;;-0.01;100.00;102009.88;6299981;28;20424;-88
2023/01/22 01:18:35;;;;;;;10.98;6.50;;;;;;;-0.02;100.00;102003.13;6304926;28;20074;-88
2023/01/22 01:21:37;;;;;;;13.18;6.82;;;;;;;-0.05;100.00;102004.00;6308659;28;20040;-87
2023/01/22 01:24:39;;;;;;;11.40;6.10;;;;;;;-0.02;100.00;102010.75;6287604;28;20566;-87
2023/01/22 01:27:42;;;;;;;12.82;6.75;;;;;;;-0.02;100.00;102005.66;6278162;28;20066;-86
2023/01/22 01:30:44;;;;;;;10.50;6.00;;;;;;;0.01;100.00;102003.06;6305366;28;20044;-86
2023/01/22 01:33:47;;;;;;;10.93;5.85;;;;;;;-0.01;100.00;102004.78;6288256;28;20078;-86
2023/01/22 01:36:48;;;;;;;13.30;5.93;;;;;;;0.02;100.00;102001.34;6291655;28;20044;-86
2023/01/22 01:39:51;;;;;;;11.57;6.20;;;;;;;0.03;100.00;101997.97;6295182;28;20566;-86
2023/01/22 01:42:53;;;;;;;11.00;5.80;;;;;;;0.02;100.00;101999.66;6286512;28;20032;-85
2023/01/22 01:45:58;;;;;;;11.55;6.15;;;;;;;0.01;100.00;102000.53;6283052;28;20040;-86
2023/01/22 01:49:00;;;;;;;9.80;6.15;;;;;;;-0.05;100.00;101993.81;6308273;28;20043;-85
2023/01/22 01:52:08;;;;;;;11.25;5.68;;;;;;;0.03;100.00;101998.81;6302478;28;20040;-85
2023/01/22 01:55:13;;;;;;;14.20;6.00;;;;;;;0.04;100.00;101995.38;6296261;28;20040;-85
2023/01/22 01:58:20;;;;;;;10.90;5.60;;;;;;;0.05;100.00;101988.59;6299798;28;20598;-85
2023/01/22 02:01:23;;;;;;;9.05;5.60;;;;;;;-0.02;100.00;101988.69;6295764;28;20146;-85
2023/01/22 02:04:26;;;;;;;11.02;5.43;;;;;;;0.04;100.00;101985.22;6297837;28;20049;-85
2023/01/22 02:07:28;;;;;;;8.23;5.15;;;;;;;0.05;100.00;101994.56;6293925;28;20047;-85
2023/01/22 02:10:30;;;;;;;10.50;5.80;;;;;;;-0.01;100.00;101992.91;6301586;28;20051;-84
2023/01/22 02:13:34;;;;;;;10.30;5.65;;;;;;;0.06;100.00;101985.19;6287866;28;20639;-84
2023/01/22 02:16:36;;;;;;;10.38;5.70;;;;;;;0.04;100.00;101986.91;6298014;28;20055;-84
2023/01/22 02:19:38;;;;;;;7.97;4.90;;;;;;;0.05;100.00;101993.69;6302284;28;20045;-84
2023/01/22 02:22:40;;;;;;;9.40;5.05;;;;;;;-0.01;100.00;101997.97;6296857;28;20181;-84
2023/01/22 02:25:42;;;;;;;7.22;4.85;;;;;;;0.03;100.00;101991.16;6297915;28;20194;-84
2023/01/22 02:28:46;;;;;;;7.43;4.45;;;;;;;0.06;100.00;102003.84;6294888;28;20048;-84
2023/01/22 02:31:48;;;;;;;7.85;5.00;;;;;;;0.04;100.00;101997.94;6281396;28;20483;-84
2023/01/22 02:34:50;;;;;;;8.40;5.25;;;;;;;0.03;100.00;101990.34;6289928;28;20079;-84
2023/01/22 02:37:52;;;;;;;9.25;5.03;;;;;;;0.00;100.00;101988.66;6303035;28;20469;-84
2023/01/22 02:40:55;;;;;;;9.52;5.13;;;;;;;0.02;100.00;101983.53;6299721;28;20047;-84
2023/01/22 02:43:57;;;;;;;9.13;4.97;;;;;;;0.04;100.00;101984.38;6281514;28;20181;-84
2023/01/22 02:47:00;;;;;;;8.13;5.13;;;;;;;0.03;100.00;101996.25;6306470;28;20104;-85
2023/01/22 02:50:02;;;;;;;6.80;4.10;;;;;;;-0.03;100.00;102002.25;6279378;28;20062;-84
2023/01/22 02:53:04;;;;;;;7.55;4.55;;;;;;;0.02;100.00;101986.91;6301075;28;20501;-84
2023/01/22 02:56:07;;;;;;;10.25;5.13;;;;;;;0.05;100.00;101981.81;6297465;28;20037;-84
2023/01/22 02:59:11;;;;;;;7.53;4.72;;;;;;;-0.02;100.00;101987.84;6291765;28;20054;-84
2023/01/22 03:02:13;;;;;;;10.65;5.47;;;;;;;0.05;100.00;101976.72;6294229;28;20047;-84
2023/01/22 03:05:15;;;;;;;11.38;5.28;;;;;;;-0.01;100.00;101979.34;6289547;28;20045;-84
2023/01/22 03:08:18;;;;;;;11.43;5.35;;;;;;;0.04;100.00;101969.94;6292787;28;20046;-85
2023/01/22 03:11:21;;;;;;;7.32;4.78;;;;;;;0.07;100.00;101974.97;6296011;28;20482;-84
2023/01/22 03:21:18;;;;;;;7.43;4.45;;;;;;;0.00;100.00;101965.75;6287720;28;20048;-84
2023/01/22 03:24:20;;;;;;;7.18;4.35;;;;;;;0.02;100.00;101971.66;6303595;28;20274;-84
2023/01/22 03:27:24;;;;;;;8.05;4.60;;;;;;;0.05;100.00;101963.13;6296853;28;20063;-84
2023/01/22 03:30:28;;;;;;;7.07;3.75;;;;;;;0.06;100.00;101957.19;6292925;28;20127;-85
2023/01/22 03:33:30;;;;;;;8.38;4.88;;;;;;;0.10;100.00;101976.66;6294621;28;20043;-86
2023/01/22 03:36:32;;;;;;;8.02;4.80;;;;;;;0.08;100.00;101963.97;6287765;28;20473;-86
2023/01/22 03:39:39;;;;;;;8.80;5.07;;;;;;;0.04;100.00;101976.72;6288548;28;20083;-86
2023/01/22 03:42:41;;;;;;;7.07;4.45;;;;;;;0.04;100.00;101967.38;6292094;28;20028;-86
2023/01/22 03:45:43;;;;;;;9.85;4.90;;;;;;;0.04;100.00;101969.09;6296532;28;20035;-86
2023/01/22 03:48:50;;;;;;;8.23;4.25;;;;;;;0.03;100.00;101963.16;6301354;28;20044;-86
2023/01/22 03:51:52;;;;;;;7.38;4.20;;;;;;;0.01;100.00;101969.16;6290085;28;20106;-86
2023/01/22 03:54:55;;;;;;;9.70;4.43;;;;;;;-0.02;100.00;101975.13;6299780;28;20489;-86
2023/01/22 03:57:57;;;;;;;8.75;5.00;;;;;;;0.03;100.00;101967.44;6289917;28;20048;-87
2023/01/22 04:01:01;;;;;;;8.05;4.80;;;;;;;0.00;100.00;101978.50;6296592;28;20063;-87
2023/01/22 04:04:04;;;;;;;7.03;4.40;;;;;;;-0.01;100.00;101966.59;6293979;28;20423;-87
2023/01/22 04:07:06;;;;;;;6.15;4.07;;;;;;;0.05;100.00;101973.31;6301279;28;20522;-87
2023/01/22 04:10:09;;;;;;;7.35;4.40;;;;;;;0.05;100.00;101975.88;6295379;28;20075;-87
2023/01/22 04:13:11;;;;;;;7.45;4.05;;;;;;;0.01;100.00;101971.69;6290169;28;20301;-86
2023/01/22 04:16:16;;;;;;;8.20;4.43;;;;;;;-0.01;100.00;101969.16;6278371;28;20052;-86
2023/01/22 04:19:40;;;;;;;6.03;3.67;;;;;;;-0.09;100.00;101978.59;6291096;28;20106;-85
2023/01/22 04:23:00;;;;;;;6.88;3.88;;;;;;;-0.12;100.00;101979.47;6298075;28;20060;-85
2023/01/22 04:26:03;;;;;;;5.03;3.40;;;;;;;-0.13;100.00;101984.56;6299211;28;20040;-85
2023/01/22 04:29:05;;;;;;;5.75;3.63;;;;;;;-0.07;100.00;101982.78;6298956;28;20064;-85
2023/01/22 04:32:08;;;;;;;6.13;3.47;;;;;;;-0.10;100.00;101987.06;6292691;28;20185;-85
2023/01/22 04:35:25;;;;;;;5.57;3.88;;;;;;;-0.11;100.00;101981.13;6297771;28;20105;-85
2023/01/22 04:38:30;;;;;;;6.97;4.45;;;;;;;-0.09;100.00;101991.31;6299311;28;20049;-85
2023/01/22 04:41:32;;;;;;;6.03;3.63;;;;;;;-0.13;100.00;101997.28;6289943;28;20410;-85
2023/01/22 04:44:33;;;;;;;4.65;3.35;;;;;;;-0.11;100.00;101987.94;6294819;28;20378;-86
2023/01/22 04:47:39;;;;;;;5.00;3.45;;;;;;;-0.01;100.00;101985.25;6301484;28;20067;-86
2023/01/22 04:50:42;;;;;;;7.10;4.00;;;;;;;-0.05;100.00;101981.09;6297929;28;20059;-86
2023/01/22 04:53:47;;;;;;;7.53;4.00;;;;;;;-0.04;100.00;101985.28;6290872;28;20537;-86
2023/01/22 04:56:48;;;;;;;6.78;3.80;;;;;;;0.02;100.00;101991.19;6297467;28;20360;-86
2023/01/22 04:59:50;;;;;;;5.68;3.72;;;;;;;-0.04;100.00;101992.94;6293511;28;20131;-85
2023/01/22 05:03:00;;;;;;;6.22;4.18;;;;;;;-0.04;100.00;101987.00;6295877;28;20065;-86
2023/01/22 05:06:04;;;;;;;8.32;4.25;;;;;;;0.02;100.00;101983.53;6300071;28;20039;-87
2023/01/22 05:09:08;;;;;;;6.75;4.28;;;;;;;-0.01;100.00;101979.34;6289198;28;20052;-87
2023/01/22 05:12:28;;;;;;;6.22;4.25;;;;;;;-0.02;100.00;101985.28;6282443;28;20364;-88
2023/01/22 05:15:30;;;;;;;5.72;3.85;;;;;;;-0.09;100.00;101978.59;6273353;28;20497;-87
2023/01/22 05:18:37;;;;;;;5.43;3.85;;;;;;;-0.12;100.00;101981.16;6268136;28;20048;-87
2023/01/22 05:21:39;;;;;;;6.20;3.58;;;;;;;-0.10;100.00;101987.06;6296215;28;20060;-87
2023/01/22 05:24:41;;;;;;;6.57;3.58;;;;;;;-0.07;100.00;101987.06;6300289;28;20040;-87
2023/01/22 05:27:43;;;;;;;7.20;4.35;;;;;;;-0.03;100.00;101993.78;6293488;28;20504;-86
2023/01/22 05:30:50;;;;;;;6.38;3.55;;;;;;;-0.05;100.00;101986.16;6285163;28;20087;-86
2023/01/22 05:34:11;;;;;;;4.80;3.42;;;;;;;-0.14;100.00;101988.81;6296890;28;20092;-86
2023/01/22 05:37:13;;;;;;;4.90;3.75;;;;;;;-0.08;100.00;101992.97;6292434;28;20780;-85
2023/01/22 05:40:15;;;;;;;7.88;3.50;;;;;;;-0.11;100.00;101990.47;6309592;28;20168;-85
2023/01/22 05:43:18;;;;;;;6.70;3.35;;;;;;;-0.08;100.00;101987.88;6289785;28;20197;-84
2023/01/22 05:46:26;;;;;;;5.18;3.65;;;;;;;-0.09;100.00;101991.31;6295673;28;20477;-85
2023/01/22 05:49:54;;;;;;;6.30;3.97;;;;;;;-0.12;100.00;101988.81;6248476;28;20060;-85
2023/01/22 05:52:56;;;;;;;7.40;4.25;;;;;;;-0.05;100.00;101993.81;6243751;28;20044;-85
2023/01/22 05:56:05;;;;;;;5.95;3.78;;;;;;;-0.10;100.00;101995.56;6235077;28;20037;-86
2023/01/22 05:59:11;;;;;;;7.63;4.13;;;;;;;-0.14;100.00;101991.34;6249511;28;20111;-86
2023/01/22 06:02:21;;;;;;;7.18;4.70;;;;;;;-0.12;100.00;101998.97;6231672;28;20068;-85
2023/01/22 06:05:26;;;;;;;9.25;4.85;;;;;;;-0.12;100.00;101998.97;6248494;28;20049;-86
2023/01/22 06:08:35;;;;;;;8.35;4.63;;;;;;;-0.10;100.00;102007.41;6230838;28;20057;-86
2023/01/22 06:11:37;;;;;;;7.03;4.22;;;;;;;-0.02;100.00;102010.75;6217707;28;21489;-86
2023/01/22 06:14:41;;;;;;;7.05;4.30;;;;;;;-0.11;100.00;102014.22;6247878;28;20045;-86
2023/01/22 06:17:43;;;;;;;7.90;4.22;;;;;;;-0.11;100.00;102008.28;6213219;28;20157;-86
2023/01/22 06:20:45;;;;;;;9.25;4.95;;;;;;;-0.19;100.00;102005.00;6233165;28;20164;-86
2023/01/22 06:23:46;;;;;;;8.88;4.60;;;;;;;-0.20;100.00;102009.22;6251432;28;20162;-86
2023/01/22 06:26:48;;;;;;;8.35;4.88;;;;;;;-0.18;100.00;102004.97;6265023;28;20048;-86
2023/01/22 06:29:50;;;;;;;9.63;5.43;;;;;;;-0.21;100.00;102012.63;6292629;28;20048;-86
2023/01/22 06:32:52;;;;;;;9.40;4.63;;;;;;;-0.20;100.00;102010.91;6290082;28;20417;-86
2023/01/22 06:35:55;;;;;;;9.02;4.85;;;;;;;-0.13;100.00;102015.09;6289547;28;20044;-86
2023/01/22 06:38:57;;;;;;;7.75;4.57;;;;;;;-0.13;100.00;102023.56;6295088;28;20032;-86
2023/01/22 06:42:17;;;;;;;7.05;4.13;;;;;;;-0.13;100.00;102022.72;6291513;28;20061;-87
2023/01/22 06:45:19;;;;;;;9.35;4.75;;;;;;;-0.23;100.00;102019.44;6289777;28;20360;-87
2023/01/22 06:48:25;;;;;;;7.65;4.95;;;;;;;-0.27;100.00;102031.34;6287798;28;20608;-87
2023/01/22 06:51:29;;;;;;;9.32;4.55;;;;;;;-0.23;100.00;102027.06;6288303;28;20045;-87
2023/01/22 06:54:31;;;;;;;8.63;5.07;;;;;;;-0.25;100.00;102041.50;6286881;28;20056;-87
2023/01/22 06:57:33;;;;;;;7.75;5.13;;;;;;;-0.26;100.00;102043.22;6295835;28;20055;-86
2023/01/22 07:00:35;;;;;;;8.27;4.82;;;;;;;-0.24;100.00;102040.66;6294746;28;20041;-86
2023/01/22 07:03:37;;;;;;;8.95;4.53;;;;;;;-0.25;100.00;102037.28;6292306;28;20036;-86
2023/01/22 07:06:39;;;;;;;7.75;4.75;;;;;;;-0.22;100.00;102047.41;6294123;28;20724;-87
2023/01/22 07:09:41;;;;;;;8.77;4.40;;;;;;;-0.34;100.00;102055.16;6291230;28;20047;-86
2023/01/22 07:12:43;;;;;;;11.60;6.07;;;;;;;-0.33;100.00;102054.28;6290890;28;20047;-86
2023/01/22 07:15:45;;;;;;;8.05;5.50;;;;;;;-0.30;100.00;102061.06;6294748;28;20047;-87
2023/01/22 07:18:47;;;;;;;7.72;4.78;;;;;;;-0.31;100.00;102061.94;6290755;28;20130;-86
2023/01/22 07:21:48;;;;;;;8.65;4.32;;;;;;;-0.32;100.00;102072.97;6295934;28;20077;-87
2023/01/22 07:24:51;;;;;;;9.60;5.45;;;;;;;-0.30;100.00;102072.09;6283219;28;20045;-87
2023/01/22 07:27:59;;;;;;;8.05;4.80;;;;;;;-0.14;100.00;102071.94;6292398;28;20043;-87
2023/01/22 07:31:02;;;;;;;8.32;5.05;;;;;;;-0.22;100.00;102072.88;6275041;28;20045;-87
2023/01/22 07:34:05;;;;;;;8.15;4.38;;;;;;;-0.23;100.00;102078.78;6284480;28;20040;-87
2023/01/22 07:37:07;;;;;;;11.32;5.43;;;;;;;-0.24;100.00;102084.75;6287222;28;20051;-88
2023/01/22 07:40:10;;;;;;;9.15;4.95;;;;;;;-0.26;100.00;102090.72;6294092;28;20044;-88
2023/01/22 07:43:16;;;;;;;8.95;5.03;;;;;;;-0.11;100.00;102097.38;6261409;28;20040;-88
2023/01/22 07:46:18;;;;;;;9.18;5.30;;;;;;;-0.18;100.00;102095.72;6287503;28;20040;-88
2023/01/22 07:49:19;;;;;;;8.95;5.15;;;;;;;-0.27;100.00;102101.75;6292890;28;20040;-88
2023/01/22 07:52:21;;;;;;;7.32;4.65;;;;;;;-0.33;100.00;102091.63;6297030;28;20075;-88
2023/01/22 07:55:23;;;;;;;11.05;4.82;;;;;;;-0.31;100.00;102093.28;6282612;28;20049;-88
2023/01/22 07:58:25;;;;;;;9.05;5.18;;;;;;;-0.23;100.00;102100.84;6293186;28;20431;-88
2023/01/22 08:01:27;;;;;;;10.05;5.20;;;;;;;-0.16;100.00;102105.03;6288381;28;20361;-88
2023/01/22 08:04:29;;;;;;;7.93;5.43;;;;;;;-0.22;100.00;102098.31;6293248;28;20658;-89
2023/01/22 08:07:31;;;;;;;13.95;7.10;;;;;;;-0.16;100.00;102099.09;6293887;28;20131;-89
2023/01/22 08:10:34;;;;;;;9.48;5.55;;;;;;;-0.16;100.00;102110.13;6290719;28;20830;-89
2023/01/22 08:13:37;;;;;;;11.15;5.13;;;;;;;-0.21;100.00;102106.78;6288141;28;20487;-88
2023/01/22 08:16:38;;;;;;;10.57;5.85;;;;;;;-0.24;100.00;102112.75;6290695;28;20581;-88
2023/01/22 08:19:41;;;;;;;10.43;6.32;;;;;;;-0.26;100.00;102106.81;6285165;28;20040;-88
2023/01/22 08:22:44;;;;;;;10.70;5.60;;;;;;;-0.22;100.00;102105.09;6291306;28;20039;-88
2023/01/22 08:25:46;;;;;;;8.32;6.00;;;;;;;-0.25;100.00;102110.19;6292127;28;20044;-88
2023/01/22 08:28:47;;;;;;;10.10;5.60;;;;;;;-0.25;100.00;102111.06;6287597;28;20118;-89
2023/01/22 08:31:49;;;;;;;9.98;5.65;;;;;;;-0.16;100.00;102117.75;6294107;28;20296;-89
2023/01/22 08:34:53;;;;;;;13.85;6.15;;;;;;;-0.20;100.00;102120.34;6295497;28;20067;-89
2023/01/22 08:38:01;;;;;;;10.60;5.68;;;;;;;-0.16;100.00;102117.75;6284708;28;20498;-89
2023/01/22 08:41:03;;;;;;;11.18;5.78;;;;;;;-0.13;100.00;102119.44;6284619;28;20177;-87
2023/01/22 08:44:07;;;;;;;9.48;5.45;;;;;;;-0.06;100.00;102124.44;6293946;28;20039;-87
2023/01/22 08:47:10;;;;;;;10.23;6.00;;;;;;;-0.05;100.00;102125.28;6283968;28;20060;-87
2023/01/22 08:50:13;;;;;;;9.75;5.18;;;;;;;0.02;100.00;102126.94;6288472;28;20051;-88
2023/01/22 08:53:14;;;;;;;11.82;5.53;;;;;;;0.02;100.00;102129.47;6283147;28;20066;-88
2023/01/22 08:56:16;;;;;;;7.22;5.10;;;;;;;0.03;100.00;102138.81;6286401;28;20044;-88
2023/01/22 08:59:18;;;;;;;9.82;5.20;;;;;;;-0.02;100.00;102133.75;6288005;28;20040;-87
2023/01/22 09:02:20;;;;;;;9.02;5.13;;;;;;;0.09;100.00;102138.75;6291281;28;20553;-88
2023/01/22 09:05:22;;;;;;;9.73;5.50;;;;;;;0.16;100.00;102142.09;6283738;28;20159;-87
2023/01/22 09:08:24;;;;;;;9.85;5.05;;;;;;;0.21;100.00;102145.44;6284508;28;20052;-88
2023/01/22 09:11:33;;;;;;;10.80;5.63;;;;;;;0.22;100.00;102147.09;6294846;28;20044;-88
2023/01/22 09:14:35;;;;;;;11.68;5.78;;;;;;;0.31;100.00;102141.09;6289054;28;20085;-88
2023/01/22 09:17:37;;;;;;;10.60;5.32;;;;;;;0.43;100.00;102146.91;6295803;28;20045;-89
2023/01/22 09:20:44;;;;;;;11.65;6.57;;;;;;;0.50;100.00;102147.69;6291389;28;20122;-89
2023/01/22 09:23:45;;;;;;;11.30;6.90;;;;;;;0.54;100.00;102154.41;6292347;28;20048;-90
2023/01/22 09:26:47;;;;;;;8.38;4.60;;;;;;;0.71;100.00;102154.22;6286513;28;20120;-89
2023/01/22 09:29:49;;;;;;;9.73;5.13;;;;;;;0.76;100.00;102162.66;6293440;28;20106;-89
2023/01/22 09:32:52;;;;;;;9.57;5.85;;;;;;;0.80;100.00;102164.31;6287685;28;20429;-91
2023/01/22 09:35:54;;;;;;;10.05;5.60;;;;;;;0.99;100.00;102169.19;6296251;28;20060;-90
2023/01/22 09:38:56;;;;;;;8.50;4.78;;;;;;;1.08;100.00;102167.38;6296001;28;20488;-90
2023/01/22 09:42:00;;;;;;;7.82;5.15;;;;;;;1.27;100.00;102162.88;6294693;28;20050;-90
2023/01/22 09:45:09;;;;;;;8.23;4.93;;;;;;;1.34;100.00;102167.88;6288719;28;20059;-89
2023/01/22 09:48:16;;;;;;;9.05;4.70;;;;;;;1.29;100.00;102155.19;6286183;28;20041;-89
2023/01/22 09:51:18;;;;;;;6.32;4.65;;;;;;;1.35;100.00;102156.81;6289361;28;20075;-89
2023/01/22 09:54:21;;;;;;;7.28;4.35;;;;;;;1.40;100.00;102150.78;6290898;28;20336;-90
2023/01/22 09:57:24;;;;;;;7.80;5.25;;;;;;;1.50;100.00;102154.03;6291740;28;20126;-90
2023/01/22 10:00:39;;;;;;;11.23;5.90;;;;;;;1.56;100.00;102155.66;6288646;28;20039;-90
2023/01/22 10:03:55;;;;;;;7.78;4.45;;;;;;;1.58;100.00;102157.31;6289248;28;20433;-90
2023/01/22 10:07:00;;;;;;;6.47;4.45;;;;;;;1.54;100.00;102157.38;6271263;28;20387;-90
2023/01/22 10:10:23;;;;;;;8.70;4.53;;;;;;;1.54;100.00;102154.81;6296581;28;20097;-90
2023/01/22 10:13:38;;;;;;;6.43;4.40;;;;;;;1.46;100.00;102147.28;6295364;28;20040;-90
2023/01/22 10:16:40;;;;;;;8.02;4.82;;;;;;;1.35;100.00;102155.13;6289590;28;20045;-90
2023/01/22 10:19:45;;;;;;;7.15;4.88;;;;;;;1.35;100.00;102144.91;6302455;28;20043;-90
2023/01/22 10:22:53;;;;;;;9.02;4.60;;;;;;;1.45;100.00;102145.63;6293848;28;20047;-91
2023/01/22 10:26:06;;;;;;;8.15;4.85;;;;;;;1.52;100.00;102144.66;6296849;28;20040;-90
2023/01/22 10:29:19;;;;;;;9.40;5.55;;;;;;;1.56;100.00;102135.25;6296487;28;20047;-90
2023/01/22 10:32:27;;;;;;;7.57;4.47;;;;;;;1.63;100.00;102141.94;6295141;28;20511;-90
2023/01/22 10:35:30;;;;;;;7.63;5.03;;;;;;;1.85;100.00;102138.16;6302194;28;20065;-90
2023/01/22 10:38:32;;;;;;;9.65;5.40;;;;;;;1.99;100.00;102143.06;6302270;28;20377;-91
2023/01/22 10:41:34;;;;;;;6.85;4.53;;;;;;;2.12;100.00;102147.06;6302014;28;20652;-92
2023/01/22 10:44:36;;;;;;;6.18;4.50;;;;;;;2.26;100.00;102143.41;6298001;28;20101;-92
2023/01/22 10:47:38;;;;;;;8.80;4.78;;;;;;;2.27;100.00;102148.50;6295892;28;20089;-92
2023/01/22 10:50:41;;;;;;;9.40;5.72;;;;;;;2.28;100.00;102142.53;6300700;28;20562;-91
2023/01/22 10:53:46;;;;;;;6.85;4.47;;;;;;;2.25;100.00;102144.31;6298997;28;20048;-91
2023/01/22 10:56:49;;;;;;;7.35;4.95;;;;;;;2.17;100.00;102139.34;6298498;28;20051;-90
2023/01/22 11:00:00;;;;;;;8.75;5.57;;;;;;;2.16;100.00;102140.19;6295236;28;20036;-90
2023/01/22 11:03:17;;;;;;;8.75;5.57;;;;;;;2.11;100.00;102137.75;6298839;28;20075;-90
2023/01/22 11:06:25;;;;;;;;;;;;;;;2.09;100.00;102144.59;6295196;28;20055;-90
2023/01/22 11:09:37;;;;;;;8.30;4.88;;;;;;;2.03;100.00;102149.78;6290673;28;20774;-90
2023/01/22 11:12:56;;;;;;;13.43;7.43;;;;;;;2.04;100.00;102153.19;6297123;28;20043;-90
2023/01/22 11:16:22;;;;;;;27.75;14.18;;;;;;;2.08;100.00;102149.72;6296622;28;20063;-90
2023/01/22 11:19:33;;;;;;;19.88;10.38;;;;;;;2.24;100.00;102146.03;6294021;28;20535;-91
2023/01/22 11:22:42;;;;;;;7.72;5.43;;;;;;;2.29;100.00;102136.56;6288369;28;20049;-91
2023/01/22 11:25:56;;;;;;;9.25;6.22;;;;;;;2.35;100.00;102139.00;6290880;28;20094;-92
2023/01/22 11:29:11;;;;;;;6.85;4.72;;;;;;;2.46;100.00;102131.13;6290628;28;20461;-93
2023/01/22 11:32:48;;;;;;;8.10;5.30;;;;;;;2.56;100.00;102131.81;6293192;28;20054;-93
2023/01/22 11:35:57;;;;;;;8.45;4.88;;;;;;;2.55;100.00;102128.38;6287142;28;20040;-92
2023/01/22 11:39:21;;;;;;;8.07;4.55;;;;;;;2.48;100.00;102131.09;6286983;28;20173;-92
2023/01/22 11:43:00;;;;;;;10.02;5.45;;;;;;;2.42;100.00;102126.94;6288424;28;20048;-92
2023/01/22 11:46:21;;;;;;;9.40;4.80;;;;;;;2.33;100.00;102120.28;6284087;28;20413;-92
2023/01/22 11:49:55;;;;;;;10.02;6.28;;;;;;;2.29;100.00;102116.13;6288729;28;20052;-91
2023/01/22 11:53:25;;;;;;;8.40;4.82;;;;;;;2.26;100.00;102113.63;6290831;28;20119;-90
2023/01/22 11:56:47;;;;;;;6.80;5.03;;;;;;;2.29;100.00;102113.56;6291409;28;20376;-90
2023/01/22 11:59:58;;;;;;;7.03;5.10;;;;;;;2.39;100.00;102110.84;6290140;28;20516;-90
2023/01/22 12:03:19;;;;;;;8.20;6.03;;;;;;;2.47;100.00;102098.75;6288981;28;20452;-90
2023/01/22 12:07:03;;;;;;;9.60;4.55;;;;;;;2.54;100.00;102108.81;6290553;28;20078;-90
2023/01/22 12:10:39;;;;;;;6.80;4.43;;;;;;;2.55;100.00;102113.03;6191790;28;20515;-90
2023/01/22 12:14:30;;;;;;;7.40;4.78;;;;;;;2.65;100.00;102113.69;6196878;28;20164;-90
2023/01/22 12:18:09;;;;;;;8.23;5.18;;;;;;;2.68;100.00;102113.63;6145651;28;20058;-89
2023/01/22 12:21:38;;;;;;;6.93;4.82;;;;;;;2.64;100.00;102114.59;6114023;29;20493;-90
2023/01/22 12:24:54;;;;;;;6.00;4.50;;;;;;;2.52;100.00;102119.94;6111087;29;20055;-89
2023/01/22 12:28:15;;;;;;;6.10;4.65;;;;;;;2.43;100.00;102125.22;6106551;29;20051;-90
2023/01/22 12:31:28;;;;;;;8.18;5.57;;;;;;;2.35;100.00;102117.72;6110033;29;20103;-90
2023/01/22 12:34:54;;;;;;;5.65;4.93;;;;;;;2.32;100.00;102112.66;6107998;29;20402;-90
2023/01/22 12:38:07;;;;;;;6.78;4.50;;;;;;;2.34;100.00;102119.44;6093158;29;20478;-89
2023/01/22 12:41:29;;;;;;;7.20;4.72;;;;;;;2.28;100.00;102118.69;6110118;29;20059;-89
2023/01/22 12:45:01;;;;;;;8.70;6.07;;;;;;;2.28;100.00;102114.41;6105382;29;20456;-89
2023/01/22 12:48:18;;;;;;;12.98;7.15;;;;;;;2.26;100.00;102121.28;6170729;28;20054;-90
2023/01/22 12:51:50;;;;;;;16.10;8.52;;;;;;;2.30;100.00;102115.25;6177629;28;20086;-90
2023/01/22 12:54:54;;;;;;;15.80;8.82;;;;;;;2.32;100.00;102120.31;6230343;28;20498;-90
2023/01/22 12:57:56;;;;;;;14.20;8.15;;;;;;;2.25;100.00;102116.19;6277868;28;20449;-90
2023/01/22 13:01:07;;;;;;;7.63;5.10;;;;;;;2.18;100.00;102123.13;6299560;28;20040;-90
2023/01/22 13:04:11;;;;;;;;;;;;;;;2.17;100.00;102121.44;6296128;28;20036;-90
2023/01/22 13:07:36;;;;;;;8.10;5.55;;;;;;;2.20;100.00;102120.56;6294756;28;19931;-90
2023/01/22 13:10:37;;;;;;;6.78;4.72;;;;;;;2.10;100.00;102122.44;6293918;28;20417;-90
2023/01/22 13:14:05;;;;;;;6.97;5.07;;;;;;;2.05;100.00;102119.94;6297169;28;20141;-90
2023/01/22 13:17:29;;;;;;;5.88;5.25;;;;;;;2.08;100.00;102119.06;6278653;28;20067;-90
2023/01/22 13:20:47;;;;;;;7.22;4.97;;;;;;;2.04;100.00;102125.94;6299453;28;20072;-90
2023/01/22 13:23:49;;;;;;;7.35;4.93;;;;;;;1.97;100.00;102131.19;6291443;28;20035;-91
2023/01/22 13:26:52;;;;;;;8.65;5.40;;;;;;;1.94;100.00;102139.75;6293688;28;20036;-91
2023/01/22 13:30:14;;;;;;;8.82;5.45;;;;;;;1.92;100.00;102139.75;6293099;28;20149;-92
2023/01/22 13:33:17;;;;;;;7.18;4.75;;;;;;;1.83;100.00;102147.56;6293456;28;20033;-92
2023/01/22 13:36:19;;;;;;;7.63;5.35;;;;;;;1.78;100.00;102143.41;6293091;28;20041;-92
2023/01/22 13:39:22;;;;;;;6.88;4.78;;;;;;;1.76;100.00;102148.53;6292860;28;20060;-92
2023/01/22 13:42:26;;;;;;;6.00;4.80;;;;;;;1.72;100.00;102145.19;6299265;28;20360;-92
2023/01/22 13:45:31;;;;;;;7.60;5.47;;;;;;;1.70;100.00;102146.91;6301434;28;20051;-93
2023/01/22 13:48:34;;;;;;;9.13;6.35;;;;;;;1.70;100.00;102154.56;6300423;28;20101;-92
2023/01/22 13:51:36;;;;;;;6.22;5.03;;;;;;;1.68;100.00;102148.66;6292493;28;20041;-92
2023/01/22 13:54:44;;;;;;;7.05;5.28;;;;;;;1.64;100.00;102151.25;6300655;28;20044;-92
2023/01/22 13:57:49;;;;;;;6.95;5.40;;;;;;;1.61;100.00;102156.44;6287972;28;20530;-92
2023/01/22 14:00:51;;;;;;;7.20;4.88;;;;;;;1.60;100.00;102153.03;6294493;28;20071;-92
2023/01/22 14:04:00;;;;;;;7.90;5.55;;;;;;;1.57;100.00;102159.91;6299202;28;20040;-91
2023/01/22 14:07:05;;;;;;;8.13;5.35;;;;;;;1.50;100.00;102165.09;6302601;28;20111;-92
2023/01/22 14:10:23;;;;;;;6.88;5.28;;;;;;;1.48;100.00;102164.25;6299604;28;20564;-92
2023/01/22 14:13:25;;;;;;;7.78;5.65;;;;;;;1.48;100.00;102171.09;6296501;28;20136;-90
2023/01/22 14:16:38;;;;;;;9.18;5.85;;;;;;;1.50;100.00;102170.19;6300053;28;20340;-91
2023/01/22 14:19:40;;;;;;;7.40;5.35;;;;;;;1.43;100.00;102178.78;6294220;28;20533;-89
2023/01/22 14:22:42;;;;;;;7.90;5.68;;;;;;;1.40;100.00;102183.94;6297343;28;20040;-90
2023/01/22 14:25:51;;;;;;;11.43;6.88;;;;;;;1.41;100.00;102183.06;6294231;28;20055;-90
2023/01/22 14:28:53;;;;;;;10.85;7.38;;;;;;;1.37;100.00;102190.81;6291760;28;20742;-89
2023/01/22 14:31:54;;;;;;;7.63;5.70;;;;;;;1.29;100.00;102186.66;6297235;28;20078;-89